sensor_id;sensor_type;location;lat;lon;timestamp;pressure;altitude;pressure_sealevel;temperature;humidity
11339;BME280;5724;42.684;23.252;2023-03-23T00:00:36;94318.94;;;6.19;100.00
11339;BME280;5724;42.684;23.252;2023-03-23T00:03:02;94309.22;;;6.18;100.00
11339;BME280;5724;42.684;23.252;2023-03-23T00:05:27;94307.94;;;6.15;100.00
11339;BME280;5724;42.684;23.252;2023-03-23T00:07:54;94312.00;;;6.09;100.00
11339;BME280;5724;42.684;23.252;2023-03-23T00:10:20;94311.22;;;6.09;100.00
11339;BME280;5724;42.684;23.252;2023-03-23T00:12:46;94305.97;;;6.03;100.00
11339;BME280;5724;42.684;23.252;2023-03-23T00:15:14;94300.59;;;5.95;100.00
11339;BME280;5724;42.684;23.252;2023-03-23T00:17:42;94305.34;;;5.98;100.00
11339;BME280;5724;42.684;23.252;2023-03-23T00:20:09;94309.75;;;5.90;100.00
11339;BME280;5724;42.684;23.252;2023-03-23T00:22:37;94310.84;;;5.89;100.00
11339;BME280;5724;42.684;23.252;2023-03-23T00:25:05;94300.78;;;5.90;100.00
11339;BME280;5724;42.684;23.252;2023-03-23T00:27:31;94317.22;;;5.85;100.00
11339;BME280;5724;42.684;23.252;2023-03-23T00:29:56;94316.78;;;5.83;100.00
11339;BME280;5724;42.684;23.252;2023-03-23T00:32:23;94314.56;;;5.76;100.00
11339;BME280;5724;42.684;23.252;2023-03-23T00:34:55;94316.38;;;5.72;100.00
11339;BME280;5724;42.684;23.252;2023-03-23T00:37:24;94318.50;;;5.58;100.00
11339;BME280;5724;42.684;23.252;2023-03-23T00:39:49;94318.44;;;5.45;100.00
11339;BME280;5724;42.684;23.252;2023-03-23T00:42:17;94319.53;;;5.44;100.00
11339;BME280;5724;42.684;23.252;2023-03-23T00:44:43;94326.13;;;5.35;100.00
11339;BME280;5724;42.684;23.252;2023-03-23T00:47:09;94318.97;;;5.30;100.00
11339;BME280;5724;42.684;23.252;2023-03-23T00:49:36;94327.41;;;5.29;100.00
11339;BME280;5724;42.684;23.252;2023-03-23T00:52:03;94328.75;;;5.23;100.00
11339;BME280;5724;42.684;23.252;2023-03-23T00:54:29;94323.81;;;5.16;100.00
11339;BME280;5724;42.684;23.252;2023-03-23T00:56:55;94328.56;;;5.19;100.00
11339;BME280;5724;42.684;23.252;2023-03-23T00:59:21;94323.84;;;5.07;100.00
11339;BME280;5724;42.684;23.252;2023-03-23T01:01:47;94332.59;;;5.13;100.00
11339;BME280;5724;42.684;23.252;2023-03-23T01:04:14;94330.03;;;5.16;100.00
11339;BME280;5724;42.684;23.252;2023-03-23T01:06:41;94333.19;;;5.18;100.00
11339;BME280;5724;42.684;23.252;2023-03-23T01:09:10;94340.69;;;5.22;100.00
11339;BME280;5724;42.684;23.252;2023-03-23T01:11:35;94329.56;;;5.14;100.00
11339;BME280;5724;42.684;23.252;2023-03-23T01:14:02;94349.16;;;5.11;100.00
11339;BME280;5724;42.684;23.252;2023-03-23T01:16:28;94337.09;;;5.00;100.00
11339;BME280;5724;42.684;23.252;2023-03-23T01:18:54;94336.94;;;4.97;100.00
11339;BME280;5724;42.684;23.252;2023-03-23T01:21:20;94344.09;;;5.01;100.00
11339;BME280;5724;42.684;23.252;2023-03-23T01:23:46;94336.94;;;4.97;100.00
11339;BME280;5724;42.684;23.252;2023-03-23T01:26:17;94340.44;;;4.97;100.00
11339;BME280;5724;42.684;23.252;2023-03-23T01:28:43;94335.38;;;4.87;100.00
11339;BME280;5724;42.684;23.252;2023-03-23T01:31:18;94335.19;;;4.92;100.00
11339;BME280;5724;42.684;23.252;2023-03-23T01:33:44;94336.00;;;4.93;100.00
11339;BME280;5724;42.684;23.252;2023-03-23T01:36:12;94333.59;;;4.91;100.00
11339;BME280;5724;42.684;23.252;2023-03-23T01:38:39;94335.38;;;4.87;100.00
11339;BME280;5724;42.684;23.252;2023-03-23T01:41:06;94332.47;;;4.92;100.00
11339;BME280;5724;42.684;23.252;2023-03-23T01:43:31;94334.56;;;4.95;100.00
11339;BME280;5724;42.684;23.252;2023-03-23T01:45:57;94328.69;;;4.93;100.00
11339;BME280;5724;42.684;23.252;2023-03-23T01:48:37;94328.19;;;4.91;100.00
11339;BME280;5724;42.684;23.252;2023-03-23T01:51:07;94314.69;;;4.82;100.00
11339;BME280;5724;42.684;23.252;2023-03-23T01:53:37;94308.03;;;4.71;100.00
11339;BME280;5724;42.684;23.252;2023-03-23T01:56:04;94329.03;;;4.83;100.00
11339;BME280;5724;42.684;23.252;2023-03-23T01:58:33;94312.78;;;4.83;100.00
11339;BME280;5724;42.684;23.252;2023-03-23T02:01:04;94309.81;;;4.67;100.00
11339;BME280;5724;42.684;23.252;2023-03-23T02:03:31;94311.84;;;4.70;100.00
11339;BME280;5724;42.684;23.252;2023-03-23T02:05:58;94313.41;;;4.80;100.00
11339;BME280;5724;42.684;23.252;2023-03-23T02:08:24;94313.59;;;4.83;100.00
11339;BME280;5724;42.684;23.252;2023-03-23T02:10:53;94316.91;;;4.89;100.00
11339;BME280;5724;42.684;23.252;2023-03-23T02:13:19;94312.91;;;4.95;100.00
11339;BME280;5724;42.684;23.252;2023-03-23T02:21:16;94317.91;;;5.23;100.00
11339;BME280;5724;42.684;23.252;2023-03-23T02:34:59;94311.00;;;5.34;100.00
11339;BME280;5724;42.684;23.252;2023-03-23T02:37:32;94307.19;;;5.26;100.00
11339;BME280;5724;42.684;23.252;2023-03-23T02:40:25;94309.09;;;5.34;100.00
11339;BME280;5724;42.684;23.252;2023-03-23T02:42:55;94315.94;;;5.32;100.00
11339;BME280;5724;42.684;23.252;2023-03-23T02:45:23;94313.41;;;5.27;100.00
11339;BME280;5724;42.684;23.252;2023-03-23T02:47:52;94310.91;;;5.22;100.00
11339;BME280;5724;42.684;23.252;2023-03-23T02:50:20;94325.38;;;5.26;100.00
11339;BME280;5724;42.684;23.252;2023-03-23T02:52:48;94325.69;;;5.24;100.00
11339;BME280;5724;42.684;23.252;2023-03-23T02:55:16;94317.38;;;5.29;100.00
11339;BME280;5724;42.684;23.252;2023-03-23T02:57:44;94328.22;;;5.29;100.00
11339;BME280;5724;42.684;23.252;2023-03-23T03:00:13;94335.13;;;5.18;100.00
11339;BME280;5724;42.684;23.252;2023-03-23T03:02:44;94321.38;;;4.85;100.00
11339;BME280;5724;42.684;23.252;2023-03-23T03:08:21;94338.03;;;5.04;100.00
11339;BME280;5724;42.684;23.252;2023-03-23T03:10:59;94340.56;;;5.09;100.00
11339;BME280;5724;42.684;23.252;2023-03-23T03:13:46;94346.78;;;5.01;100.00
11339;BME280;5724;42.684;23.252;2023-03-23T03:21:45;94353.09;;;4.76;100.00
11339;BME280;5724;42.684;23.252;2023-03-23T03:24:14;94360.44;;;4.67;100.00
11339;BME280;5724;42.684;23.252;2023-03-23T03:26:44;94357.88;;;4.62;100.00
11339;BME280;5724;42.684;23.252;2023-03-23T03:29:14;94347.88;;;4.45;100.00
11339;BME280;5724;42.684;23.252;2023-03-23T03:31:44;94353.91;;;4.50;100.00
11339;BME280;5724;42.684;23.252;2023-03-23T03:34:13;94354.09;;;4.45;100.00
11339;BME280;5724;42.684;23.252;2023-03-23T03:36:43;94359.31;;;4.33;100.00
11339;BME280;5724;42.684;23.252;2023-03-23T03:39:11;94366.16;;;4.30;100.00
11339;BME280;5724;42.684;23.252;2023-03-23T03:41:38;94365.56;;;4.25;100.00
11339;BME280;5724;42.684;23.252;2023-03-23T03:44:05;94371.91;;;4.29;100.00
11339;BME280;5724;42.684;23.252;2023-03-23T03:46:33;94370.16;;;4.33;100.00
11339;BME280;5724;42.684;23.252;2023-03-23T03:49:01;94364.13;;;4.36;100.00
11339;BME280;5724;42.684;23.252;2023-03-23T03:51:28;94373.97;;;4.32;100.00
11339;BME280;5724;42.684;23.252;2023-03-23T03:53:55;94368.09;;;4.30;100.00
11339;BME280;5724;42.684;23.252;2023-03-23T03:56:21;94365.84;;;4.32;100.00
11339;BME280;5724;42.684;23.252;2023-03-23T03:58:48;94357.59;;;4.20;100.00
11339;BME280;5724;42.684;23.252;2023-03-23T04:01:15;94350.56;;;4.01;100.00
11339;BME280;5724;42.684;23.252;2023-03-23T04:03:41;94356.97;;;4.06;100.00
11339;BME280;5724;42.684;23.252;2023-03-23T04:06:07;94352.50;;;4.10;100.00
11339;BME280;5724;42.684;23.252;2023-03-23T04:08:38;94348.34;;;4.03;100.00
11339;BME280;5724;42.684;23.252;2023-03-23T04:11:04;94353.13;;;4.07;100.00
11339;BME280;5724;42.684;23.252;2023-03-23T04:13:30;94359.16;;;4.03;100.00
11339;BME280;5724;42.684;23.252;2023-03-23T04:15:56;94355.03;;;3.97;100.00
11339;BME280;5724;42.684;23.252;2023-03-23T04:18:21;94357.41;;;3.99;100.00
11339;BME280;5724;42.684;23.252;2023-03-23T04:20:48;94357.56;;;3.94;100.00
11339;BME280;5724;42.684;23.252;2023-03-23T04:23:15;94357.06;;;3.83;100.00
11339;BME280;5724;42.684;23.252;2023-03-23T04:25:49;94360.25;;;3.85;100.00
11339;BME280;5724;42.684;23.252;2023-03-23T04:28:17;94357.56;;;4.02;100.00
11339;BME280;5724;42.684;23.252;2023-03-23T04:30:44;94356.78;;;4.02;100.00
11339;BME280;5724;42.684;23.252;2023-03-23T04:33:10;94363.13;;;3.80;100.00
11339;BME280;5724;42.684;23.252;2023-03-23T04:35:40;94363.91;;;3.81;100.00
11339;BME280;5724;42.684;23.252;2023-03-23T04:38:06;94364.84;;;3.76;100.00
11339;BME280;5724;42.684;23.252;2023-03-23T04:40:36;94360.56;;;3.84;100.00
11339;BME280;5724;42.684;23.252;2023-03-23T04:43:02;94347.84;;;3.84;100.00
11339;BME280;5724;42.684;23.252;2023-03-23T04:45:32;94366.97;;;3.96;100.00
11339;BME280;5724;42.684;23.252;2023-03-23T04:47:58;94369.34;;;3.89;100.00
11339;BME280;5724;42.684;23.252;2023-03-23T04:50:28;94367.91;;;4.00;100.00
11339;BME280;5724;42.684;23.252;2023-03-23T04:52:56;94374.59;;;4.03;100.00
11339;BME280;5724;42.684;23.252;2023-03-23T04:55:22;94377.47;;;4.07;100.00
11339;BME280;5724;42.684;23.252;2023-03-23T04:57:47;94379.22;;;4.11;100.00
11339;BME280;5724;42.684;23.252;2023-03-23T05:00:13;94382.56;;;4.17;100.00
11339;BME280;5724;42.684;23.252;2023-03-23T05:02:42;94375.88;;;4.06;100.00
11339;BME280;5724;42.684;23.252;2023-03-23T05:05:10;94384.31;;;4.30;100.00
11339;BME280;5724;42.684;23.252;2023-03-23T05:07:38;94375.41;;;4.38;100.00
11339;BME280;5724;42.684;23.252;2023-03-23T05:10:04;94378.13;;;4.38;100.00
11339;BME280;5724;42.684;23.252;2023-03-23T05:12:30;94385.44;;;4.38;100.00
11339;BME280;5724;42.684;23.252;2023-03-23T05:14:56;94381.75;;;4.42;100.00
11339;BME280;5724;42.684;23.252;2023-03-23T05:17:21;94391.63;;;4.38;100.00
11339;BME280;5724;42.684;23.252;2023-03-23T05:19:52;94382.06;;;4.32;100.00
11339;BME280;5724;42.684;23.252;2023-03-23T05:22:18;94389.25;;;4.45;100.00
11339;BME280;5724;42.684;23.252;2023-03-23T05:24:46;94385.75;;;4.36;100.00
11339;BME280;5724;42.684;23.252;2023-03-23T05:27:12;94401.97;;;4.27;100.00
11339;BME280;5724;42.684;23.252;2023-03-23T05:29:38;94396.88;;;4.26;100.00
11339;BME280;5724;42.684;23.252;2023-03-23T05:32:06;94398.16;;;4.20;100.00
11339;BME280;5724;42.684;23.252;2023-03-23T05:34:33;94405.47;;;4.28;100.00
11339;BME280;5724;42.684;23.252;2023-03-23T05:37:00;94406.25;;;4.20;100.00
11339;BME280;5724;42.684;23.252;2023-03-23T05:39:27;94405.59;;;3.97;100.00
11339;BME280;5724;42.684;23.252;2023-03-23T05:41:52;94414.81;;;3.87;100.00
11339;BME280;5724;42.684;23.252;2023-03-23T05:44:18;94414.81;;;3.87;100.00
11339;BME280;5724;42.684;23.252;2023-03-23T05:46:44;94415.59;;;4.05;100.00
11339;BME280;5724;42.684;23.252;2023-03-23T05:49:09;94418.34;;;4.14;100.00
11339;BME280;5724;42.684;23.252;2023-03-23T05:51:35;94423.59;;;4.19;100.00
11339;BME280;5724;42.684;23.252;2023-03-23T05:54:01;94423.63;;;4.27;100.00
11339;BME280;5724;42.684;23.252;2023-03-23T05:56:27;94432.34;;;4.33;100.00
11339;BME280;5724;42.684;23.252;2023-03-23T05:58:57;94429.03;;;4.45;100.00
11339;BME280;5724;42.684;23.252;2023-03-23T06:01:24;94421.88;;;4.57;100.00
11339;BME280;5724;42.684;23.252;2023-03-23T06:03:49;94418.84;;;4.68;100.00
11339;BME280;5724;42.684;23.252;2023-03-23T06:06:20;94433.03;;;4.65;100.00
11339;BME280;5724;42.684;23.252;2023-03-23T06:08:46;94432.19;;;4.73;100.00
11339;BME280;5724;42.684;23.252;2023-03-23T06:11:11;94425.53;;;4.70;100.00
11339;BME280;5724;42.684;23.252;2023-03-23T06:13:37;94417.06;;;4.89;100.00
11339;BME280;5724;42.684;23.252;2023-03-23T06:16:02;94427.06;;;5.14;100.00
11339;BME280;5724;42.684;23.252;2023-03-23T06:18:29;94427.13;;;5.44;100.00
11339;BME280;5724;42.684;23.252;2023-03-23T06:20:59;94420.38;;;5.59;100.00
11339;BME280;5724;42.684;23.252;2023-03-23T06:23:25;94431.91;;;5.85;100.00
11339;BME280;5724;42.684;23.252;2023-03-23T06:25:54;94428.06;;;5.86;100.00
11339;BME280;5724;42.684;23.252;2023-03-23T06:28:20;94430.41;;;6.05;100.00
11339;BME280;5724;42.684;23.252;2023-03-23T06:30:45;94427.34;;;6.07;100.00
11339;BME280;5724;42.684;23.252;2023-03-23T06:33:11;94435.47;;;6.36;100.00
11339;BME280;5724;42.684;23.252;2023-03-23T06:35:36;94428.78;;;6.54;100.00
11339;BME280;5724;42.684;23.252;2023-03-23T06:38:01;94401.78;;;6.58;100.00
11339;BME280;5724;42.684;23.252;2023-03-23T06:40:28;94407.31;;;6.82;100.00
11339;BME280;5724;42.684;23.252;2023-03-23T06:42:56;94428.91;;;7.00;100.00
11339;BME280;5724;42.684;23.252;2023-03-23T06:45:22;94426.69;;;7.14;100.00
11339;BME280;5724;42.684;23.252;2023-03-23T06:47:47;94436.03;;;7.37;100.00
11339;BME280;5724;42.684;23.252;2023-03-23T06:50:16;94440.25;;;7.47;100.00
11339;BME280;5724;42.684;23.252;2023-03-23T06:52:46;94440.41;;;7.63;100.00
11339;BME280;5724;42.684;23.252;2023-03-23T06:55:13;94439.97;;;7.73;100.00
11339;BME280;5724;42.684;23.252;2023-03-23T06:57:38;94433.84;;;7.76;100.00
11339;BME280;5724;42.684;23.252;2023-03-23T07:00:04;94457.88;;;7.86;100.00
11339;BME280;5724;42.684;23.252;2023-03-23T07:02:32;94445.78;;;7.96;99.23
11339;BME280;5724;42.684;23.252;2023-03-23T07:04:58;94449.72;;;7.98;99.18
11339;BME280;5724;42.684;23.252;2023-03-23T07:07:23;94450.88;;;8.10;98.53
11339;BME280;5724;42.684;23.252;2023-03-23T07:09:49;94450.97;;;7.77;98.83
11339;BME280;5724;42.684;23.252;2023-03-23T07:12:14;94449.75;;;8.23;99.79
11339;BME280;5724;42.684;23.252;2023-03-23T07:14:40;94440.09;;;8.38;100.00
11339;BME280;5724;42.684;23.252;2023-03-23T07:17:06;94443.69;;;8.66;100.00
11339;BME280;5724;42.684;23.252;2023-03-23T07:19:32;94455.69;;;8.89;99.29
11339;BME280;5724;42.684;23.252;2023-03-23T07:21:58;94453.47;;;9.07;96.65
11339;BME280;5724;42.684;23.252;2023-03-23T07:24:23;94455.16;;;9.40;96.52
11339;BME280;5724;42.684;23.252;2023-03-23T07:26:49;94455.16;;;9.40;94.27
11339;BME280;5724;42.684;23.252;2023-03-23T07:29:15;94463.53;;;9.63;93.49
11339;BME280;5724;42.684;23.252;2023-03-23T07:31:40;94457.69;;;9.77;92.38
11339;BME280;5724;42.684;23.252;2023-03-23T07:34:06;94461.31;;;9.96;89.36
11339;BME280;5724;42.684;23.252;2023-03-23T07:36:31;94459.00;;;9.98;88.57
11339;BME280;5724;42.684;23.252;2023-03-23T07:38:58;94464.47;;;10.14;89.61
11339;BME280;5724;42.684;23.252;2023-03-23T07:41:23;94474.44;;;10.38;87.63
11339;BME280;5724;42.684;23.252;2023-03-23T07:43:49;94482.81;;;10.29;86.37
11339;BME280;5724;42.684;23.252;2023-03-23T07:46:14;94477.06;;;10.50;86.33
11339;BME280;5724;42.684;23.252;2023-03-23T07:48:39;94472.81;;;10.69;85.83
11339;BME280;5724;42.684;23.252;2023-03-23T07:51:06;94472.66;;;10.62;83.85
11339;BME280;5724;42.684;23.252;2023-03-23T07:53:32;94482.72;;;10.93;83.42
11339;BME280;5724;42.684;23.252;2023-03-23T07:55:58;94477.97;;;11.09;83.17
11339;BME280;5724;42.684;23.252;2023-03-23T07:58:24;94480.66;;;11.25;81.56
11339;BME280;5724;42.684;23.252;2023-03-23T08:00:51;94484.25;;;11.29;81.96
11339;BME280;5724;42.684;23.252;2023-03-23T08:03:18;94474.53;;;11.31;82.42
11339;BME280;5724;42.684;23.252;2023-03-23T08:05:43;94488.06;;;11.43;81.82
11339;BME280;5724;42.684;23.252;2023-03-23T08:08:09;94477.84;;;11.21;81.37
11339;BME280;5724;42.684;23.252;2023-03-23T08:10:35;94491.81;;;11.55;80.47
11339;BME280;5724;42.684;23.252;2023-03-23T08:13:01;94475.69;;;11.69;79.79
11339;BME280;5724;42.684;23.252;2023-03-23T08:15:28;94486.03;;;11.79;78.29
11339;BME280;5724;42.684;23.252;2023-03-23T08:17:54;94476.53;;;11.92;78.20
11339;BME280;5724;42.684;23.252;2023-03-23T08:20:19;94483.22;;;11.95;77.39
11339;BME280;5724;42.684;23.252;2023-03-23T08:22:49;94479.25;;;12.15;76.30
11339;BME280;5724;42.684;23.252;2023-03-23T08:25:15;94483.06;;;12.07;77.30
11339;BME280;5724;42.684;23.252;2023-03-23T08:27:42;94483.09;;;12.11;75.56
11339;BME280;5724;42.684;23.252;2023-03-23T08:30:13;94481.75;;;12.24;72.91
11339;BME280;5724;42.684;23.252;2023-03-23T08:32:39;94472.84;;;11.85;73.65
11339;BME280;5724;42.684;23.252;2023-03-23T08:35:07;94478.22;;;12.23;72.29
11339;BME280;5724;42.684;23.252;2023-03-23T08:37:34;94473.16;;;12.48;71.94
11339;BME280;5724;42.684;23.252;2023-03-23T08:40:12;94472.97;;;12.60;70.12
11339;BME280;5724;42.684;23.252;2023-03-23T08:42:41;94471.97;;;12.46;70.66
11339;BME280;5724;42.684;23.252;2023-03-23T08:45:09;94465.94;;;12.37;72.11
11339;BME280;5724;42.684;23.252;2023-03-23T08:47:36;94466.97;;;12.28;73.47
11339;BME280;5724;42.684;23.252;2023-03-23T08:50:04;94473.47;;;12.43;72.07
11339;BME280;5724;42.684;23.252;2023-03-23T08:52:30;94470.72;;;12.66;70.25
11339;BME280;5724;42.684;23.252;2023-03-23T08:54:55;94464.97;;;12.75;66.99
11339;BME280;5724;42.684;23.252;2023-03-23T08:57:23;94472.22;;;12.90;64.95
11339;BME280;5724;42.684;23.252;2023-03-23T08:59:49;94464.06;;;12.67;64.28
11339;BME280;5724;42.684;23.252;2023-03-23T09:02:15;94469.81;;;12.85;62.03
11339;BME280;5724;42.684;23.252;2023-03-23T09:04:42;94459.78;;;12.96;61.88
11339;BME280;5724;42.684;23.252;2023-03-23T09:07:10;94471.69;;;13.07;61.04
11339;BME280;5724;42.684;23.252;2023-03-23T09:09:38;94468.72;;;13.20;58.69
11339;BME280;5724;42.684;23.252;2023-03-23T09:12:08;94462.94;;;13.25;58.39
11339;BME280;5724;42.684;23.252;2023-03-23T09:14:35;94471.03;;;13.17;58.83
11339;BME280;5724;42.684;23.252;2023-03-23T09:17:01;94460.22;;;13.28;59.69
11339;BME280;5724;42.684;23.252;2023-03-23T09:19:29;94456.09;;;13.41;58.50
11339;BME280;5724;42.684;23.252;2023-03-23T09:21:55;94465.47;;;13.74;58.69
11339;BME280;5724;42.684;23.252;2023-03-23T09:24:20;94462.41;;;13.45;57.77
11339;BME280;5724;42.684;23.252;2023-03-23T09:26:46;94455.97;;;13.64;58.34
11339;BME280;5724;42.684;23.252;2023-03-23T09:29:12;94451.47;;;13.86;58.75
11339;BME280;5724;42.684;23.252;2023-03-23T09:31:38;94452.31;;;13.90;56.31
11339;BME280;5724;42.684;23.252;2023-03-23T09:34:06;94453.22;;;14.01;56.60
11339;BME280;5724;42.684;23.252;2023-03-23T09:36:31;94448.28;;;14.21;55.34
11339;BME280;5724;42.684;23.252;2023-03-23T09:38:58;94449.06;;;14.22;56.61
11339;BME280;5724;42.684;23.252;2023-03-23T09:46:58;94435.69;;;13.80;55.96
11339;BME280;5724;42.684;23.252;2023-03-23T09:49:32;94440.56;;;13.93;55.30
11339;BME280;5724;42.684;23.252;2023-03-23T09:52:04;94442.38;;;14.19;55.85
11339;BME280;5724;42.684;23.252;2023-03-23T09:54:38;94452.69;;;14.29;53.47
11339;BME280;5724;42.684;23.252;2023-03-23T09:57:13;94436.38;;;14.07;53.06
11339;BME280;5724;42.684;23.252;2023-03-23T10:05:41;94434.97;;;13.15;55.54
11339;BME280;5724;42.684;23.252;2023-03-23T10:08:19;94432.34;;;13.56;55.92
11339;BME280;5724;42.684;23.252;2023-03-23T10:11:09;94435.06;;;13.90;55.96
11339;BME280;5724;42.684;23.252;2023-03-23T10:16:34;94429.53;;;14.30;53.29
11339;BME280;5724;42.684;23.252;2023-03-23T10:19:29;94427.59;;;14.35;54.77
11339;BME280;5724;42.684;23.252;2023-03-23T10:22:12;94437.56;;;14.50;54.77
11339;BME280;5724;42.684;23.252;2023-03-23T10:30:26;94435.38;;;14.73;52.01
11339;BME280;5724;42.684;23.252;2023-03-23T10:33:01;94414.91;;;14.67;52.06
11339;BME280;5724;42.684;23.252;2023-03-23T10:35:48;94428.38;;;14.35;54.04
11339;BME280;5724;42.684;23.252;2023-03-23T10:38:23;94423.56;;;14.73;52.85
11339;BME280;5724;42.684;23.252;2023-03-23T10:40:55;94425.38;;;15.13;51.60
11339;BME280;5724;42.684;23.252;2023-03-23T10:43:23;94424.22;;;15.17;53.25
11339;BME280;5724;42.684;23.252;2023-03-23T10:45:54;94420.22;;;15.04;52.04
11339;BME280;5724;42.684;23.252;2023-03-23T10:48:27;94416.03;;;14.59;50.99
11339;BME280;5724;42.684;23.252;2023-03-23T10:50:59;94421.84;;;14.06;50.70
11339;BME280;5724;42.684;23.252;2023-03-23T10:53:32;94412.78;;;13.61;52.80
11339;BME280;5724;42.684;23.252;2023-03-23T10:55:58;94413.47;;;13.92;52.53
11339;BME280;5724;42.684;23.252;2023-03-23T10:58:33;94419.16;;;14.10;53.36
11339;BME280;5724;42.684;23.252;2023-03-23T11:01:00;94418.88;;;14.25;51.75
11339;BME280;5724;42.684;23.252;2023-03-23T11:03:40;94408.09;;;13.62;52.98
11339;BME280;5724;42.684;23.252;2023-03-23T11:06:08;94392.34;;;13.59;53.19
11339;BME280;5724;42.684;23.252;2023-03-23T11:08:48;94404.97;;;13.63;55.01
11339;BME280;5724;42.684;23.252;2023-03-23T11:11:21;94404.09;;;13.96;55.45
11339;BME280;5724;42.684;23.252;2023-03-23T11:13:52;94403.91;;;14.19;53.10
11339;BME280;5724;42.684;23.252;2023-03-23T11:18:50;94395.66;;;14.67;51.01
11339;BME280;5724;42.684;23.252;2023-03-23T11:21:20;94392.09;;;14.63;53.88
11339;BME280;5724;42.684;23.252;2023-03-23T11:23:52;94395.84;;;15.03;52.48
11339;BME280;5724;42.684;23.252;2023-03-23T11:26:25;94400.66;;;15.20;50.88
11339;BME280;5724;42.684;23.252;2023-03-23T11:29:10;94384.63;;;15.51;50.60
11339;BME280;5724;42.684;23.252;2023-03-23T11:31:42;94385.84;;;15.57;48.84
11339;BME280;5724;42.684;23.252;2023-03-23T11:36:40;94374.13;;;15.88;47.40
11339;BME280;5724;42.684;23.252;2023-03-23T11:41:47;94368.53;;;15.60;47.52
11339;BME280;5724;42.684;23.252;2023-03-23T11:44:13;94353.25;;;15.87;48.61
11339;BME280;5724;42.684;23.252;2023-03-23T11:46:48;94350.53;;;16.23;47.22
11339;BME280;5724;42.684;23.252;2023-03-23T11:49:29;94363.09;;;15.99;48.94
11339;BME280;5724;42.684;23.252;2023-03-23T11:52:26;94356.00;;;15.77;46.08
11339;BME280;5724;42.684;23.252;2023-03-23T11:55:03;94346.56;;;15.74;47.86
11339;BME280;5724;42.684;23.252;2023-03-23T11:57:30;94353.53;;;15.54;47.83
11339;BME280;5724;42.684;23.252;2023-03-23T11:59:56;94353.56;;;15.46;49.10
11339;BME280;5724;42.684;23.252;2023-03-23T12:13:20;94345.78;;;15.73;47.44
11339;BME280;5724;42.684;23.252;2023-03-23T12:21:21;94339.06;;;15.78;47.68
11339;BME280;5724;42.684;23.252;2023-03-23T12:26:50;94341.06;;;15.88;46.73
11339;BME280;5724;42.684;23.252;2023-03-23T12:32:32;94338.69;;;15.83;46.54
11339;BME280;5724;42.684;23.252;2023-03-23T12:35:22;94337.91;;;16.08;46.72
11339;BME280;5724;42.684;23.252;2023-03-23T12:48:58;94319.03;;;15.85;45.86
11339;BME280;5724;42.684;23.252;2023-03-23T12:51:39;94320.59;;;16.00;46.71
11339;BME280;5724;42.684;23.252;2023-03-23T12:56:56;94315.47;;;16.23;46.14
11339;BME280;5724;42.684;23.252;2023-03-23T13:02:21;94306.78;;;16.28;46.80
11339;BME280;5724;42.684;23.252;2023-03-23T13:04:54;94313.50;;;16.31;47.37
11339;BME280;5724;42.684;23.252;2023-03-23T13:07:26;94304.00;;;16.46;45.16
11339;BME280;5724;42.684;23.252;2023-03-23T13:10:05;94312.72;;;16.06;45.37
11339;BME280;5724;42.684;23.252;2023-03-23T13:12:32;94300.09;;;16.33;45.74
11339;BME280;5724;42.684;23.252;2023-03-23T13:17:46;94294.56;;;16.44;46.50
11339;BME280;5724;42.684;23.252;2023-03-23T13:23:12;94302.44;;;16.38;44.48
11339;BME280;5724;42.684;23.252;2023-03-23T13:25:52;94303.19;;;16.74;44.85
11339;BME280;5724;42.684;23.252;2023-03-23T13:28:24;94297.56;;;16.96;43.70
11339;BME280;5724;42.684;23.252;2023-03-23T13:31:03;94285.38;;;16.93;43.46
11339;BME280;5724;42.684;23.252;2023-03-23T13:33:34;94297.94;;;17.08;43.72
11339;BME280;5724;42.684;23.252;2023-03-23T13:36:09;94298.28;;;17.14;43.73
11339;BME280;5724;42.684;23.252;2023-03-23T13:38:36;94292.00;;;17.10;43.01
11339;BME280;5724;42.684;23.252;2023-03-23T13:41:08;94288.00;;;17.22;44.26
11339;BME280;5724;42.684;23.252;2023-03-23T13:43:37;94292.06;;;16.99;44.14
11339;BME280;5724;42.684;23.252;2023-03-23T13:46:28;94287.69;;;17.02;43.83
11339;BME280;5724;42.684;23.252;2023-03-23T13:51:51;94295.78;;;16.21;42.49
11339;BME280;5724;42.684;23.252;2023-03-23T13:54:39;94282.28;;;15.24;44.85
11339;BME280;5724;42.684;23.252;2023-03-23T13:57:38;94279.97;;;15.26;45.67
11339;BME280;5724;42.684;23.252;2023-03-23T14:05:42;94274.88;;;16.27;45.11
11339;BME280;5724;42.684;23.252;2023-03-23T14:13:04;94268.50;;;16.59;44.54
11339;BME280;5724;42.684;23.252;2023-03-23T14:15:36;94274.81;;;16.56;45.06
11339;BME280;5724;42.684;23.252;2023-03-23T14:18:03;94266.53;;;16.74;45.55
11339;BME280;5724;42.684;23.252;2023-03-23T14:20:33;94265.38;;;16.53;44.34
11339;BME280;5724;42.684;23.252;2023-03-23T14:23:00;94259.53;;;16.26;44.29
11339;BME280;5724;42.684;23.252;2023-03-23T14:25:30;94261.88;;;16.28;45.12
11339;BME280;5724;42.684;23.252;2023-03-23T14:27:57;94261.44;;;16.54;43.55
11339;BME280;5724;42.684;23.252;2023-03-23T14:30:26;94265.34;;;16.75;44.20
11339;BME280;5724;42.684;23.252;2023-03-23T14:32:53;94257.75;;;17.00;43.99
11339;BME280;5724;42.684;23.252;2023-03-23T14:35:33;94266.47;;;16.84;43.21
11339;BME280;5724;42.684;23.252;2023-03-23T14:38:00;94258.66;;;16.69;44.88
11339;BME280;5724;42.684;23.252;2023-03-23T14:40:29;94261.38;;;16.76;45.15
11339;BME280;5724;42.684;23.252;2023-03-23T14:42:56;94266.03;;;16.97;45.46
11339;BME280;5724;42.684;23.252;2023-03-23T14:45:23;94234.59;;;16.76;43.15
11339;BME280;5724;42.684;23.252;2023-03-23T14:48:00;94269.50;;;17.08;43.29
11339;BME280;5724;42.684;23.252;2023-03-23T14:50:40;94272.63;;;17.17;44.83
11339;BME280;5724;42.684;23.252;2023-03-23T14:55:37;94261.34;;;17.56;43.46
11339;BME280;5724;42.684;23.252;2023-03-23T14:58:07;94260.50;;;17.66;42.61
11339;BME280;5724;42.684;23.252;2023-03-23T15:00:37;94254.63;;;17.61;42.36
11339;BME280;5724;42.684;23.252;2023-03-23T15:03:05;94247.94;;;17.58;42.66